Decoded Metar for CYLW (KELOWNA in BC, CANADA) (IATA:YLW) | Meteo·Mobile Aviation Weather
aviador You're here:

CYLW Decoded Metar

KELOWNA in BC, CANADA
Report Time2018-09-18 13:00:00
UTC Time2018-09-18 13:13:40
Flight Rules vfr VFR
WindVRB at 02 kt
Visibility9999 m
Phenomena:N/A
Clouds:Few 075 Hf
Scattered 093 Hf
CeilingNone
Temp04°C (ISA -8)
Dew Point04°C (100% RH)
AAT2.0°C
QNH1020 hPa
Density Alt299 ft
Elevation1,411 ft
Report Wrong Elevation
Raw Report
CYLW 181300Z AUTO VRB02KT 9SM FEW075 SCT093 04/04 A3011 RMK
SLP205=

Extra information for CYLW:More info

Metar Taf Metar & Taf Last 4 Metars F.Rules Stats Wind Profile Meteogram Temp Stats Airport Information Weather charts Add Link Nearby VenuesMetar ALERT Operation Metar Decoded Social comments